sensor_id;sensor_type;location;lat;lon;timestamp;P1;durP1;ratioP1;P2;durP2;ratioP2
19519;SDS011;9904;52.246;20.898;2023-09-19T00:00:46;18.53;;;11.03;;
19519;SDS011;9904;52.246;20.898;2023-09-19T00:03:14;22.63;;;11.37;;
19519;SDS011;9904;52.246;20.898;2023-09-19T00:05:42;24.73;;;11.60;;
19519;SDS011;9904;52.246;20.898;2023-09-19T00:08:13;17.73;;;11.13;;
19519;SDS011;9904;52.246;20.898;2023-09-19T00:10:43;19.70;;;11.60;;
19519;SDS011;9904;52.246;20.898;2023-09-19T00:13:10;18.87;;;11.37;;
19519;SDS011;9904;52.246;20.898;2023-09-19T00:15:45;19.43;;;11.23;;
19519;SDS011;9904;52.246;20.898;2023-09-19T00:18:19;15.90;;;10.37;;
19519;SDS011;9904;52.246;20.898;2023-09-19T00:21:00;22.57;;;11.67;;
19519;SDS011;9904;52.246;20.898;2023-09-19T00:23:27;18.70;;;11.00;;
19519;SDS011;9904;52.246;20.898;2023-09-19T00:25:54;17.47;;;10.80;;
19519;SDS011;9904;52.246;20.898;2023-09-19T00:28:25;17.67;;;11.43;;
19519;SDS011;9904;52.246;20.898;2023-09-19T00:30:52;21.80;;;10.67;;
19519;SDS011;9904;52.246;20.898;2023-09-19T00:33:23;18.30;;;11.37;;
19519;SDS011;9904;52.246;20.898;2023-09-19T00:35:51;18.57;;;11.33;;
19519;SDS011;9904;52.246;20.898;2023-09-19T00:38:19;18.10;;;11.47;;
19519;SDS011;9904;52.246;20.898;2023-09-19T00:40:49;18.33;;;10.97;;
19519;SDS011;9904;52.246;20.898;2023-09-19T00:43:19;19.47;;;11.00;;
19519;SDS011;9904;52.246;20.898;2023-09-19T00:45:47;20.77;;;11.47;;
19519;SDS011;9904;52.246;20.898;2023-09-19T00:48:17;18.73;;;11.47;;
19519;SDS011;9904;52.246;20.898;2023-09-19T00:50:46;18.00;;;11.67;;
19519;SDS011;9904;52.246;20.898;2023-09-19T00:53:16;21.50;;;11.77;;
19519;SDS011;9904;52.246;20.898;2023-09-19T00:55:46;20.83;;;11.33;;
19519;SDS011;9904;52.246;20.898;2023-09-19T00:58:15;17.37;;;11.40;;
19519;SDS011;9904;52.246;20.898;2023-09-19T01:00:44;20.63;;;12.10;;
19519;SDS011;9904;52.246;20.898;2023-09-19T01:03:12;20.47;;;11.43;;
19519;SDS011;9904;52.246;20.898;2023-09-19T01:05:43;17.20;;;11.23;;
19519;SDS011;9904;52.246;20.898;2023-09-19T01:08:10;19.93;;;12.50;;
19519;SDS011;9904;52.246;20.898;2023-09-19T01:10:42;17.53;;;11.73;;
19519;SDS011;9904;52.246;20.898;2023-09-19T01:13:34;19.77;;;12.10;;
19519;SDS011;9904;52.246;20.898;2023-09-19T01:22:00;19.97;;;11.63;;
19519;SDS011;9904;52.246;20.898;2023-09-19T01:30:27;19.50;;;12.07;;
19519;SDS011;9904;52.246;20.898;2023-09-19T01:33:02;19.97;;;12.23;;
19519;SDS011;9904;52.246;20.898;2023-09-19T01:35:30;19.03;;;11.80;;
19519;SDS011;9904;52.246;20.898;2023-09-19T01:37:57;18.77;;;12.00;;
19519;SDS011;9904;52.246;20.898;2023-09-19T01:40:23;25.63;;;11.60;;
19519;SDS011;9904;52.246;20.898;2023-09-19T01:45:31;19.57;;;12.23;;
19519;SDS011;9904;52.246;20.898;2023-09-19T01:48:15;18.77;;;11.30;;
19519;SDS011;9904;52.246;20.898;2023-09-19T01:50:55;19.67;;;12.50;;
19519;SDS011;9904;52.246;20.898;2023-09-19T01:53:26;22.00;;;11.83;;
19519;SDS011;9904;52.246;20.898;2023-09-19T01:56:08;18.40;;;11.90;;
19519;SDS011;9904;52.246;20.898;2023-09-19T01:58:45;18.13;;;11.90;;
19519;SDS011;9904;52.246;20.898;2023-09-19T02:01:24;20.70;;;11.83;;
19519;SDS011;9904;52.246;20.898;2023-09-19T02:03:52;19.77;;;11.70;;
19519;SDS011;9904;52.246;20.898;2023-09-19T02:06:19;21.27;;;12.53;;
19519;SDS011;9904;52.246;20.898;2023-09-19T02:08:47;22.97;;;11.93;;
19519;SDS011;9904;52.246;20.898;2023-09-19T02:11:15;21.57;;;12.37;;
19519;SDS011;9904;52.246;20.898;2023-09-19T02:13:42;19.23;;;12.10;;
19519;SDS011;9904;52.246;20.898;2023-09-19T02:16:09;19.17;;;12.83;;
19519;SDS011;9904;52.246;20.898;2023-09-19T02:18:38;21.17;;;12.67;;
19519;SDS011;9904;52.246;20.898;2023-09-19T02:21:05;20.17;;;12.33;;
19519;SDS011;9904;52.246;20.898;2023-09-19T02:23:38;20.33;;;12.50;;
19519;SDS011;9904;52.246;20.898;2023-09-19T02:26:05;18.40;;;12.13;;
19519;SDS011;9904;52.246;20.898;2023-09-19T02:28:32;22.67;;;12.97;;
19519;SDS011;9904;52.246;20.898;2023-09-19T02:31:00;17.83;;;12.20;;
19519;SDS011;9904;52.246;20.898;2023-09-19T02:33:27;20.67;;;13.50;;
19519;SDS011;9904;52.246;20.898;2023-09-19T02:35:59;23.47;;;12.77;;
19519;SDS011;9904;52.246;20.898;2023-09-19T02:38:26;21.97;;;12.57;;
19519;SDS011;9904;52.246;20.898;2023-09-19T02:40:53;23.80;;;12.60;;
19519;SDS011;9904;52.246;20.898;2023-09-19T02:43:21;20.40;;;12.37;;
19519;SDS011;9904;52.246;20.898;2023-09-19T02:45:49;22.40;;;13.30;;
19519;SDS011;9904;52.246;20.898;2023-09-19T02:48:16;18.60;;;11.73;;
19519;SDS011;9904;52.246;20.898;2023-09-19T02:50:45;22.40;;;13.33;;
19519;SDS011;9904;52.246;20.898;2023-09-19T02:53:15;20.57;;;12.90;;
19519;SDS011;9904;52.246;20.898;2023-09-19T02:55:43;19.03;;;12.60;;
19519;SDS011;9904;52.246;20.898;2023-09-19T02:58:09;18.93;;;12.77;;
19519;SDS011;9904;52.246;20.898;2023-09-19T03:00:42;22.97;;;12.90;;
19519;SDS011;9904;52.246;20.898;2023-09-19T03:03:08;24.90;;;12.80;;
19519;SDS011;9904;52.246;20.898;2023-09-19T03:05:35;20.10;;;13.20;;
19519;SDS011;9904;52.246;20.898;2023-09-19T03:08:04;23.30;;;13.33;;
19519;SDS011;9904;52.246;20.898;2023-09-19T03:10:31;29.93;;;13.43;;
19519;SDS011;9904;52.246;20.898;2023-09-19T03:12:58;23.60;;;12.90;;
19519;SDS011;9904;52.246;20.898;2023-09-19T03:15:26;25.00;;;12.83;;
19519;SDS011;9904;52.246;20.898;2023-09-19T03:17:53;19.00;;;12.97;;
19519;SDS011;9904;52.246;20.898;2023-09-19T03:20:20;22.60;;;13.33;;
19519;SDS011;9904;52.246;20.898;2023-09-19T03:22:47;26.20;;;13.53;;
19519;SDS011;9904;52.246;20.898;2023-09-19T03:25:14;20.43;;;12.40;;
19519;SDS011;9904;52.246;20.898;2023-09-19T03:27:43;25.53;;;12.73;;
19519;SDS011;9904;52.246;20.898;2023-09-19T03:30:10;21.67;;;12.20;;
19519;SDS011;9904;52.246;20.898;2023-09-19T03:32:45;24.17;;;13.30;;
19519;SDS011;9904;52.246;20.898;2023-09-19T03:35:17;20.57;;;12.53;;
19519;SDS011;9904;52.246;20.898;2023-09-19T03:37:43;23.13;;;13.70;;
19519;SDS011;9904;52.246;20.898;2023-09-19T03:40:10;22.17;;;13.37;;
19519;SDS011;9904;52.246;20.898;2023-09-19T03:42:38;24.60;;;13.10;;
19519;SDS011;9904;52.246;20.898;2023-09-19T03:45:09;22.57;;;13.07;;
19519;SDS011;9904;52.246;20.898;2023-09-19T03:47:39;20.03;;;12.83;;
19519;SDS011;9904;52.246;20.898;2023-09-19T03:50:07;21.10;;;12.80;;
19519;SDS011;9904;52.246;20.898;2023-09-19T03:52:37;18.53;;;12.00;;
19519;SDS011;9904;52.246;20.898;2023-09-19T03:55:04;23.20;;;13.10;;
19519;SDS011;9904;52.246;20.898;2023-09-19T03:57:31;21.83;;;13.53;;
19519;SDS011;9904;52.246;20.898;2023-09-19T03:59:58;21.93;;;13.23;;
19519;SDS011;9904;52.246;20.898;2023-09-19T04:02:24;22.87;;;12.37;;
19519;SDS011;9904;52.246;20.898;2023-09-19T04:04:51;21.90;;;13.47;;
19519;SDS011;9904;52.246;20.898;2023-09-19T04:07:18;26.77;;;13.63;;
19519;SDS011;9904;52.246;20.898;2023-09-19T04:09:48;25.50;;;13.30;;
19519;SDS011;9904;52.246;20.898;2023-09-19T04:12:15;18.07;;;12.30;;
19519;SDS011;9904;52.246;20.898;2023-09-19T04:14:43;21.73;;;13.23;;
19519;SDS011;9904;52.246;20.898;2023-09-19T04:17:10;19.60;;;12.17;;
19519;SDS011;9904;52.246;20.898;2023-09-19T04:19:37;22.33;;;12.70;;
19519;SDS011;9904;52.246;20.898;2023-09-19T04:22:04;19.33;;;12.87;;
19519;SDS011;9904;52.246;20.898;2023-09-19T04:24:30;22.57;;;13.13;;
19519;SDS011;9904;52.246;20.898;2023-09-19T04:26:58;21.37;;;13.10;;
19519;SDS011;9904;52.246;20.898;2023-09-19T04:29:28;21.83;;;12.93;;
19519;SDS011;9904;52.246;20.898;2023-09-19T04:31:56;23.00;;;13.07;;
19519;SDS011;9904;52.246;20.898;2023-09-19T04:34:26;22.97;;;12.27;;
19519;SDS011;9904;52.246;20.898;2023-09-19T04:36:54;20.60;;;12.07;;
19519;SDS011;9904;52.246;20.898;2023-09-19T04:39:22;26.93;;;13.50;;
19519;SDS011;9904;52.246;20.898;2023-09-19T04:41:51;24.60;;;13.90;;
19519;SDS011;9904;52.246;20.898;2023-09-19T04:44:19;20.40;;;12.70;;
19519;SDS011;9904;52.246;20.898;2023-09-19T04:46:46;24.93;;;12.10;;
19519;SDS011;9904;52.246;20.898;2023-09-19T04:49:13;21.03;;;12.73;;
19519;SDS011;9904;52.246;20.898;2023-09-19T04:51:40;21.87;;;12.20;;
19519;SDS011;9904;52.246;20.898;2023-09-19T04:54:06;21.53;;;12.70;;
19519;SDS011;9904;52.246;20.898;2023-09-19T04:56:34;23.83;;;12.63;;
19519;SDS011;9904;52.246;20.898;2023-09-19T04:59:00;21.60;;;12.10;;
19519;SDS011;9904;52.246;20.898;2023-09-19T05:01:27;22.73;;;13.33;;
19519;SDS011;9904;52.246;20.898;2023-09-19T05:03:54;20.80;;;12.33;;
19519;SDS011;9904;52.246;20.898;2023-09-19T05:06:21;23.13;;;12.47;;
19519;SDS011;9904;52.246;20.898;2023-09-19T05:08:48;21.27;;;12.70;;
19519;SDS011;9904;52.246;20.898;2023-09-19T05:11:19;21.97;;;12.37;;
19519;SDS011;9904;52.246;20.898;2023-09-19T05:13:48;23.13;;;12.23;;
19519;SDS011;9904;52.246;20.898;2023-09-19T05:16:19;19.80;;;12.20;;
19519;SDS011;9904;52.246;20.898;2023-09-19T05:18:46;20.43;;;12.70;;
19519;SDS011;9904;52.246;20.898;2023-09-19T05:21:13;19.00;;;12.63;;
19519;SDS011;9904;52.246;20.898;2023-09-19T05:23:39;19.13;;;12.37;;
19519;SDS011;9904;52.246;20.898;2023-09-19T05:26:07;23.37;;;13.37;;
19519;SDS011;9904;52.246;20.898;2023-09-19T05:28:34;25.73;;;12.90;;
19519;SDS011;9904;52.246;20.898;2023-09-19T05:31:01;25.07;;;12.73;;
19519;SDS011;9904;52.246;20.898;2023-09-19T05:33:31;23.20;;;12.30;;
19519;SDS011;9904;52.246;20.898;2023-09-19T05:35:58;19.57;;;11.50;;
19519;SDS011;9904;52.246;20.898;2023-09-19T05:38:25;23.63;;;12.77;;
19519;SDS011;9904;52.246;20.898;2023-09-19T05:40:53;22.60;;;12.80;;
19519;SDS011;9904;52.246;20.898;2023-09-19T05:43:20;26.97;;;12.60;;
19519;SDS011;9904;52.246;20.898;2023-09-19T05:45:47;26.30;;;11.77;;
19519;SDS011;9904;52.246;20.898;2023-09-19T05:48:14;31.13;;;13.23;;
19519;SDS011;9904;52.246;20.898;2023-09-19T05:50:43;21.33;;;10.60;;
19519;SDS011;9904;52.246;20.898;2023-09-19T05:53:13;23.30;;;11.17;;
19519;SDS011;9904;52.246;20.898;2023-09-19T05:55:41;16.40;;;11.23;;
19519;SDS011;9904;52.246;20.898;2023-09-19T05:58:08;26.73;;;11.53;;
19519;SDS011;9904;52.246;20.898;2023-09-19T06:00:36;22.60;;;10.97;;
19519;SDS011;9904;52.246;20.898;2023-09-19T06:03:05;26.63;;;11.37;;
19519;SDS011;9904;52.246;20.898;2023-09-19T06:05:32;21.33;;;11.07;;
19519;SDS011;9904;52.246;20.898;2023-09-19T06:07:58;23.70;;;11.17;;
19519;SDS011;9904;52.246;20.898;2023-09-19T06:10:34;26.03;;;11.90;;
19519;SDS011;9904;52.246;20.898;2023-09-19T06:13:02;27.03;;;12.53;;
19519;SDS011;9904;52.246;20.898;2023-09-19T06:15:32;20.77;;;11.80;;
19519;SDS011;9904;52.246;20.898;2023-09-19T06:17:59;21.53;;;11.73;;
19519;SDS011;9904;52.246;20.898;2023-09-19T06:20:28;21.57;;;11.73;;
19519;SDS011;9904;52.246;20.898;2023-09-19T06:22:56;23.47;;;11.97;;
19519;SDS011;9904;52.246;20.898;2023-09-19T06:25:22;21.57;;;11.53;;
19519;SDS011;9904;52.246;20.898;2023-09-19T06:27:50;26.23;;;11.63;;
19519;SDS011;9904;52.246;20.898;2023-09-19T06:30:22;24.50;;;12.17;;
19519;SDS011;9904;52.246;20.898;2023-09-19T06:32:57;25.23;;;12.40;;
19519;SDS011;9904;52.246;20.898;2023-09-19T06:35:25;27.13;;;10.60;;
19519;SDS011;9904;52.246;20.898;2023-09-19T06:37:52;17.53;;;10.90;;
19519;SDS011;9904;52.246;20.898;2023-09-19T06:40:19;22.23;;;11.43;;
19519;SDS011;9904;52.246;20.898;2023-09-19T06:42:46;27.13;;;11.00;;
19519;SDS011;9904;52.246;20.898;2023-09-19T06:45:16;19.13;;;10.90;;
19519;SDS011;9904;52.246;20.898;2023-09-19T06:47:48;19.00;;;10.90;;
19519;SDS011;9904;52.246;20.898;2023-09-19T06:50:17;20.90;;;10.37;;
19519;SDS011;9904;52.246;20.898;2023-09-19T06:52:46;24.13;;;10.60;;
19519;SDS011;9904;52.246;20.898;2023-09-19T06:55:17;19.43;;;10.70;;
19519;SDS011;9904;52.246;20.898;2023-09-19T06:57:47;22.80;;;10.77;;
19519;SDS011;9904;52.246;20.898;2023-09-19T07:00:14;19.70;;;10.60;;
19519;SDS011;9904;52.246;20.898;2023-09-19T07:02:55;19.47;;;10.10;;
19519;SDS011;9904;52.246;20.898;2023-09-19T07:05:21;31.27;;;11.03;;
19519;SDS011;9904;52.246;20.898;2023-09-19T07:07:48;17.67;;;10.27;;
19519;SDS011;9904;52.246;20.898;2023-09-19T07:10:15;15.83;;;10.83;;
19519;SDS011;9904;52.246;20.898;2023-09-19T07:12:42;17.07;;;10.60;;
19519;SDS011;9904;52.246;20.898;2023-09-19T07:15:09;21.40;;;11.80;;
19519;SDS011;9904;52.246;20.898;2023-09-19T07:17:36;19.87;;;11.40;;
19519;SDS011;9904;52.246;20.898;2023-09-19T07:20:03;18.53;;;11.50;;
19519;SDS011;9904;52.246;20.898;2023-09-19T07:22:34;19.50;;;11.97;;
19519;SDS011;9904;52.246;20.898;2023-09-19T07:25:01;20.60;;;11.37;;
19519;SDS011;9904;52.246;20.898;2023-09-19T07:27:28;23.93;;;12.03;;
19519;SDS011;9904;52.246;20.898;2023-09-19T07:29:55;21.57;;;11.70;;
19519;SDS011;9904;52.246;20.898;2023-09-19T07:32:21;21.53;;;11.77;;
19519;SDS011;9904;52.246;20.898;2023-09-19T07:34:48;21.33;;;12.17;;
19519;SDS011;9904;52.246;20.898;2023-09-19T07:37:15;19.33;;;12.20;;
19519;SDS011;9904;52.246;20.898;2023-09-19T07:39:43;20.87;;;12.43;;
19519;SDS011;9904;52.246;20.898;2023-09-19T07:42:11;20.77;;;13.50;;
19519;SDS011;9904;52.246;20.898;2023-09-19T07:44:44;25.37;;;13.07;;
19519;SDS011;9904;52.246;20.898;2023-09-19T07:47:14;28.83;;;13.50;;
19519;SDS011;9904;52.246;20.898;2023-09-19T07:49:40;27.77;;;13.93;;
19519;SDS011;9904;52.246;20.898;2023-09-19T07:52:08;23.50;;;12.90;;
19519;SDS011;9904;52.246;20.898;2023-09-19T07:54:36;20.63;;;13.13;;
19519;SDS011;9904;52.246;20.898;2023-09-19T07:57:05;21.20;;;13.23;;
19519;SDS011;9904;52.246;20.898;2023-09-19T07:59:31;21.30;;;13.53;;
19519;SDS011;9904;52.246;20.898;2023-09-19T08:01:58;22.73;;;13.37;;
19519;SDS011;9904;52.246;20.898;2023-09-19T08:04:25;21.00;;;12.57;;
19519;SDS011;9904;52.246;20.898;2023-09-19T08:06:52;26.50;;;12.53;;
19519;SDS011;9904;52.246;20.898;2023-09-19T08:09:19;24.70;;;12.53;;
19519;SDS011;9904;52.246;20.898;2023-09-19T08:11:51;19.57;;;12.77;;
19519;SDS011;9904;52.246;20.898;2023-09-19T08:14:17;20.50;;;11.60;;
19519;SDS011;9904;52.246;20.898;2023-09-19T08:16:44;17.13;;;12.10;;
19519;SDS011;9904;52.246;20.898;2023-09-19T08:19:11;18.00;;;11.90;;
19519;SDS011;9904;52.246;20.898;2023-09-19T08:21:38;20.00;;;11.27;;
19519;SDS011;9904;52.246;20.898;2023-09-19T08:24:05;17.67;;;10.57;;
19519;SDS011;9904;52.246;20.898;2023-09-19T08:26:32;18.63;;;10.77;;
19519;SDS011;9904;52.246;20.898;2023-09-19T08:28:58;14.87;;;10.47;;
19519;SDS011;9904;52.246;20.898;2023-09-19T08:31:32;17.20;;;10.47;;
19519;SDS011;9904;52.246;20.898;2023-09-19T08:34:00;19.67;;;10.27;;
19519;SDS011;9904;52.246;20.898;2023-09-19T08:36:26;18.50;;;10.87;;
19519;SDS011;9904;52.246;20.898;2023-09-19T08:38:53;17.97;;;10.43;;
19519;SDS011;9904;52.246;20.898;2023-09-19T08:41:20;18.63;;;11.23;;
19519;SDS011;9904;52.246;20.898;2023-09-19T08:43:47;18.57;;;11.30;;
19519;SDS011;9904;52.246;20.898;2023-09-19T08:46:15;21.57;;;11.47;;
19519;SDS011;9904;52.246;20.898;2023-09-19T08:49:05;20.20;;;12.47;;
19519;SDS011;9904;52.246;20.898;2023-09-19T08:51:42;19.97;;;12.40;;
19519;SDS011;9904;52.246;20.898;2023-09-19T08:54:17;16.93;;;11.33;;
19519;SDS011;9904;52.246;20.898;2023-09-19T08:56:53;18.20;;;11.03;;
19519;SDS011;9904;52.246;20.898;2023-09-19T08:59:23;18.90;;;10.50;;
19519;SDS011;9904;52.246;20.898;2023-09-19T09:01:52;18.20;;;11.27;;
19519;SDS011;9904;52.246;20.898;2023-09-19T09:04:20;19.97;;;11.40;;
19519;SDS011;9904;52.246;20.898;2023-09-19T09:06:49;20.97;;;11.53;;
19519;SDS011;9904;52.246;20.898;2023-09-19T09:09:20;15.27;;;11.40;;
19519;SDS011;9904;52.246;20.898;2023-09-19T09:11:48;16.93;;;11.50;;
19519;SDS011;9904;52.246;20.898;2023-09-19T09:14:17;21.43;;;11.63;;
19519;SDS011;9904;52.246;20.898;2023-09-19T09:16:45;17.30;;;10.93;;
19519;SDS011;9904;52.246;20.898;2023-09-19T09:19:14;18.23;;;11.33;;
19519;SDS011;9904;52.246;20.898;2023-09-19T09:21:47;22.07;;;11.50;;
19519;SDS011;9904;52.246;20.898;2023-09-19T09:27:30;34.53;;;14.77;;
19519;SDS011;9904;52.246;20.898;2023-09-19T09:30:00;35.53;;;15.37;;
19519;SDS011;9904;52.246;20.898;2023-09-19T09:32:27;29.43;;;15.47;;
19519;SDS011;9904;52.246;20.898;2023-09-19T09:34:56;29.20;;;14.23;;
19519;SDS011;9904;52.246;20.898;2023-09-19T09:37:27;26.53;;;13.93;;
19519;SDS011;9904;52.246;20.898;2023-09-19T09:39:58;25.87;;;15.60;;
19519;SDS011;9904;52.246;20.898;2023-09-19T09:42:45;28.97;;;15.03;;
19519;SDS011;9904;52.246;20.898;2023-09-19T09:45:23;26.23;;;15.60;;
19519;SDS011;9904;52.246;20.898;2023-09-19T09:47:59;27.33;;;15.97;;
19519;SDS011;9904;52.246;20.898;2023-09-19T09:50:31;23.77;;;15.73;;
19519;SDS011;9904;52.246;20.898;2023-09-19T09:53:21;30.30;;;17.53;;
19519;SDS011;9904;52.246;20.898;2023-09-19T09:56:05;30.33;;;16.37;;
19519;SDS011;9904;52.246;20.898;2023-09-19T10:01:04;24.47;;;15.23;;
19519;SDS011;9904;52.246;20.898;2023-09-19T10:03:42;26.07;;;15.40;;
19519;SDS011;9904;52.246;20.898;2023-09-19T10:06:15;26.53;;;15.53;;
19519;SDS011;9904;52.246;20.898;2023-09-19T10:09:02;25.07;;;14.33;;
19519;SDS011;9904;52.246;20.898;2023-09-19T10:11:32;26.10;;;15.03;;
19519;SDS011;9904;52.246;20.898;2023-09-19T10:14:03;24.60;;;13.37;;
19519;SDS011;9904;52.246;20.898;2023-09-19T10:16:33;24.97;;;13.53;;
19519;SDS011;9904;52.246;20.898;2023-09-19T10:19:02;22.23;;;13.43;;
19519;SDS011;9904;52.246;20.898;2023-09-19T10:21:33;20.03;;;12.23;;
19519;SDS011;9904;52.246;20.898;2023-09-19T10:24:03;19.03;;;11.10;;
19519;SDS011;9904;52.246;20.898;2023-09-19T10:26:34;20.17;;;11.93;;
19519;SDS011;9904;52.246;20.898;2023-09-19T10:29:02;22.00;;;11.77;;
19519;SDS011;9904;52.246;20.898;2023-09-19T10:31:33;19.93;;;11.63;;
19519;SDS011;9904;52.246;20.898;2023-09-19T10:34:07;23.07;;;11.27;;
19519;SDS011;9904;52.246;20.898;2023-09-19T10:36:36;23.87;;;12.90;;
19519;SDS011;9904;52.246;20.898;2023-09-19T10:39:04;26.23;;;13.30;;
19519;SDS011;9904;52.246;20.898;2023-09-19T10:41:33;16.37;;;8.87;;
19519;SDS011;9904;52.246;20.898;2023-09-19T10:44:02;20.27;;;8.20;;
19519;SDS011;9904;52.246;20.898;2023-09-19T10:46:31;16.13;;;9.07;;
19519;SDS011;9904;52.246;20.898;2023-09-19T10:49:00;18.30;;;9.00;;
19519;SDS011;9904;52.246;20.898;2023-09-19T10:51:33;18.17;;;8.67;;
19519;SDS011;9904;52.246;20.898;2023-09-19T10:54:11;12.87;;;7.97;;
19519;SDS011;9904;52.246;20.898;2023-09-19T10:56:43;14.30;;;8.33;;
19519;SDS011;9904;52.246;20.898;2023-09-19T10:59:15;13.67;;;7.20;;
19519;SDS011;9904;52.246;20.898;2023-09-19T11:01:55;12.00;;;7.57;;
19519;SDS011;9904;52.246;20.898;2023-09-19T11:07:06;14.13;;;8.40;;
19519;SDS011;9904;52.246;20.898;2023-09-19T11:09:50;14.63;;;9.70;;
19519;SDS011;9904;52.246;20.898;2023-09-19T11:14:57;15.60;;;8.57;;
19519;SDS011;9904;52.246;20.898;2023-09-19T11:17:37;15.27;;;9.60;;
19519;SDS011;9904;52.246;20.898;2023-09-19T11:28:44;14.57;;;8.67;;
19519;SDS011;9904;52.246;20.898;2023-09-19T11:30:51;13.23;;;8.23;;
19519;SDS011;9904;52.246;20.898;2023-09-19T11:33:23;13.00;;;8.77;;
19519;SDS011;9904;52.246;20.898;2023-09-19T11:46:30;13.67;;;8.13;;
19519;SDS011;9904;52.246;20.898;2023-09-19T11:49:07;12.70;;;8.77;;
19519;SDS011;9904;52.246;20.898;2023-09-19T11:51:43;13.83;;;8.70;;
19519;SDS011;9904;52.246;20.898;2023-09-19T11:54:14;14.07;;;8.83;;
19519;SDS011;9904;52.246;20.898;2023-09-19T11:56:45;13.37;;;8.93;;
19519;SDS011;9904;52.246;20.898;2023-09-19T11:59:21;15.97;;;9.67;;
19519;SDS011;9904;52.246;20.898;2023-09-19T12:01:53;12.20;;;8.93;;
19519;SDS011;9904;52.246;20.898;2023-09-19T12:07:07;17.47;;;9.97;;
19519;SDS011;9904;52.246;20.898;2023-09-19T12:09:46;14.30;;;9.37;;
19519;SDS011;9904;52.246;20.898;2023-09-19T12:12:20;15.77;;;9.47;;
19519;SDS011;9904;52.246;20.898;2023-09-19T12:14:54;16.00;;;10.13;;
19519;SDS011;9904;52.246;20.898;2023-09-19T12:17:23;16.07;;;9.93;;
19519;SDS011;9904;52.246;20.898;2023-09-19T12:19:51;14.23;;;8.97;;
19519;SDS011;9904;52.246;20.898;2023-09-19T12:22:18;17.90;;;10.00;;
19519;SDS011;9904;52.246;20.898;2023-09-19T12:24:47;16.37;;;8.97;;
19519;SDS011;9904;52.246;20.898;2023-09-19T12:27:14;13.80;;;9.10;;
19519;SDS011;9904;52.246;20.898;2023-09-19T12:29:43;17.87;;;9.83;;
19519;SDS011;9904;52.246;20.898;2023-09-19T12:32:10;16.17;;;9.77;;
19519;SDS011;9904;52.246;20.898;2023-09-19T12:34:37;18.37;;;9.60;;
19519;SDS011;9904;52.246;20.898;2023-09-19T12:37:10;17.53;;;8.90;;
19519;SDS011;9904;52.246;20.898;2023-09-19T12:39:54;13.90;;;8.83;;
19519;SDS011;9904;52.246;20.898;2023-09-19T12:42:41;20.67;;;9.63;;
19519;SDS011;9904;52.246;20.898;2023-09-19T12:45:09;21.30;;;9.83;;
19519;SDS011;9904;52.246;20.898;2023-09-19T12:47:35;15.97;;;9.30;;
19519;SDS011;9904;52.246;20.898;2023-09-19T12:52:40;15.00;;;8.90;;
19519;SDS011;9904;52.246;20.898;2023-09-19T12:55:19;13.77;;;9.30;;
19519;SDS011;9904;52.246;20.898;2023-09-19T13:00:39;18.40;;;10.13;;
19519;SDS011;9904;52.246;20.898;2023-09-19T13:03:17;20.10;;;11.00;;
19519;SDS011;9904;52.246;20.898;2023-09-19T13:05:58;15.73;;;10.43;;
19519;SDS011;9904;52.246;20.898;2023-09-19T13:08:33;22.27;;;10.63;;
19519;SDS011;9904;52.246;20.898;2023-09-19T13:13:40;16.20;;;10.63;;
19519;SDS011;9904;52.246;20.898;2023-09-19T13:16:15;15.03;;;10.47;;
19519;SDS011;9904;52.246;20.898;2023-09-19T13:18:49;15.53;;;10.27;;
19519;SDS011;9904;52.246;20.898;2023-09-19T13:21:29;16.90;;;10.90;;
19519;SDS011;9904;52.246;20.898;2023-09-19T13:24:19;16.97;;;10.07;;
19519;SDS011;9904;52.246;20.898;2023-09-19T13:26:47;17.77;;;10.57;;
19519;SDS011;9904;52.246;20.898;2023-09-19T13:29:14;18.83;;;10.43;;
19519;SDS011;9904;52.246;20.898;2023-09-19T13:31:51;19.40;;;11.30;;
19519;SDS011;9904;52.246;20.898;2023-09-19T13:34:21;18.97;;;10.80;;
19519;SDS011;9904;52.246;20.898;2023-09-19T13:36:48;21.97;;;11.10;;
19519;SDS011;9904;52.246;20.898;2023-09-19T13:39:15;20.03;;;12.50;;
19519;SDS011;9904;52.246;20.898;2023-09-19T13:41:44;19.47;;;11.93;;
19519;SDS011;9904;52.246;20.898;2023-09-19T13:44:13;20.77;;;11.50;;
19519;SDS011;9904;52.246;20.898;2023-09-19T13:46:40;17.07;;;11.47;;
19519;SDS011;9904;52.246;20.898;2023-09-19T13:49:10;26.03;;;12.43;;
19519;SDS011;9904;52.246;20.898;2023-09-19T13:51:37;20.07;;;11.83;;
19519;SDS011;9904;52.246;20.898;2023-09-19T13:54:04;20.17;;;12.70;;
19519;SDS011;9904;52.246;20.898;2023-09-19T13:56:31;26.70;;;12.07;;
19519;SDS011;9904;52.246;20.898;2023-09-19T13:58:59;21.10;;;12.93;;
19519;SDS011;9904;52.246;20.898;2023-09-19T14:01:26;20.17;;;11.07;;
19519;SDS011;9904;52.246;20.898;2023-09-19T14:03:53;24.30;;;11.63;;
19519;SDS011;9904;52.246;20.898;2023-09-19T14:06:22;16.80;;;9.77;;
19519;SDS011;9904;52.246;20.898;2023-09-19T14:08:49;15.87;;;9.33;;
19519;SDS011;9904;52.246;20.898;2023-09-19T14:11:18;18.07;;;9.50;;
19519;SDS011;9904;52.246;20.898;2023-09-19T14:13:45;17.53;;;9.33;;
19519;SDS011;9904;52.246;20.898;2023-09-19T14:16:15;12.33;;;7.30;;
19519;SDS011;9904;52.246;20.898;2023-09-19T14:18:45;16.13;;;9.13;;
19519;SDS011;9904;52.246;20.898;2023-09-19T14:21:12;11.33;;;6.27;;
19519;SDS011;9904;52.246;20.898;2023-09-19T14:23:39;10.07;;;5.93;;
19519;SDS011;9904;52.246;20.898;2023-09-19T14:26:05;10.57;;;5.87;;
19519;SDS011;9904;52.246;20.898;2023-09-19T14:28:32;15.60;;;6.00;;
19519;SDS011;9904;52.246;20.898;2023-09-19T14:31:06;8.40;;;6.00;;
19519;SDS011;9904;52.246;20.898;2023-09-19T14:33:34;10.97;;;5.70;;
19519;SDS011;9904;52.246;20.898;2023-09-19T14:36:07;8.60;;;5.00;;
19519;SDS011;9904;52.246;20.898;2023-09-19T14:38:37;8.87;;;4.80;;
19519;SDS011;9904;52.246;20.898;2023-09-19T14:41:05;9.93;;;5.17;;
19519;SDS011;9904;52.246;20.898;2023-09-19T14:43:33;8.33;;;5.47;;
19519;SDS011;9904;52.246;20.898;2023-09-19T14:46:03;15.10;;;4.90;;
19519;SDS011;9904;52.246;20.898;2023-09-19T14:48:30;11.43;;;5.20;;
19519;SDS011;9904;52.246;20.898;2023-09-19T14:51:01;8.97;;;4.50;;
19519;SDS011;9904;52.246;20.898;2023-09-19T14:53:29;12.03;;;5.00;;
19519;SDS011;9904;52.246;20.898;2023-09-19T14:55:56;9.40;;;4.03;;
19519;SDS011;9904;52.246;20.898;2023-09-19T14:58:22;8.47;;;4.37;;
19519;SDS011;9904;52.246;20.898;2023-09-19T15:00:52;9.43;;;5.23;;
19519;SDS011;9904;52.246;20.898;2023-09-19T15:03:19;9.87;;;4.70;;
19519;SDS011;9904;52.246;20.898;2023-09-19T15:05:46;7.53;;;4.50;;
19519;SDS011;9904;52.246;20.898;2023-09-19T15:08:13;6.10;;;4.23;;
19519;SDS011;9904;52.246;20.898;2023-09-19T15:10:39;8.20;;;5.00;;
19519;SDS011;9904;52.246;20.898;2023-09-19T15:13:06;9.87;;;4.20;;
19519;SDS011;9904;52.246;20.898;2023-09-19T15:15:34;9.97;;;4.90;;
19519;SDS011;9904;52.246;20.898;2023-09-19T15:18:00;9.07;;;4.73;;
19519;SDS011;9904;52.246;20.898;2023-09-19T15:20:27;10.30;;;5.10;;
19519;SDS011;9904;52.246;20.898;2023-09-19T15:22:53;11.33;;;4.93;;
19519;SDS011;9904;52.246;20.898;2023-09-19T15:25:20;10.60;;;5.00;;
19519;SDS011;9904;52.246;20.898;2023-09-19T15:27:47;8.40;;;5.40;;
19519;SDS011;9904;52.246;20.898;2023-09-19T15:30:13;10.93;;;5.27;;
19519;SDS011;9904;52.246;20.898;2023-09-19T15:32:42;9.83;;;6.17;;
19519;SDS011;9904;52.246;20.898;2023-09-19T15:35:09;7.87;;;4.87;;